sensor_id;sensor_type;location;lat;lon;timestamp;P1;durP1;ratioP1;P2;durP2;ratioP2
249;SDS011;109;19.806;-70.704;2024-03-23T00:55:20;14.83;;;8.43;;
249;SDS011;109;19.806;-70.704;2024-03-23T00:57:46;15.33;;;7.40;;
249;SDS011;109;19.806;-70.704;2024-03-23T01:00:13;20.67;;;7.60;;
249;SDS011;109;19.806;-70.704;2024-03-23T01:02:41;11.23;;;6.90;;
249;SDS011;109;19.806;-70.704;2024-03-23T01:05:07;18.83;;;7.70;;
249;SDS011;109;19.806;-70.704;2024-03-23T01:07:34;10.50;;;7.23;;
249;SDS011;109;19.806;-70.704;2024-03-23T01:10:01;19.27;;;7.60;;
249;SDS011;109;19.806;-70.704;2024-03-23T01:12:27;20.03;;;7.80;;
249;SDS011;109;19.806;-70.704;2024-03-23T01:14:53;15.17;;;8.40;;
249;SDS011;109;19.806;-70.704;2024-03-23T01:17:20;16.00;;;7.27;;
249;SDS011;109;19.806;-70.704;2024-03-23T01:19:46;16.50;;;6.93;;
249;SDS011;109;19.806;-70.704;2024-03-23T01:22:13;21.00;;;7.40;;
249;SDS011;109;19.806;-70.704;2024-03-23T01:24:39;19.20;;;7.23;;
249;SDS011;109;19.806;-70.704;2024-03-23T01:27:06;18.77;;;7.67;;
249;SDS011;109;19.806;-70.704;2024-03-23T01:29:32;17.87;;;7.47;;
249;SDS011;109;19.806;-70.704;2024-03-23T01:31:58;10.50;;;6.63;;
249;SDS011;109;19.806;-70.704;2024-03-23T01:34:25;20.53;;;6.80;;
249;SDS011;109;19.806;-70.704;2024-03-23T01:36:52;19.60;;;7.80;;
249;SDS011;109;19.806;-70.704;2024-03-23T01:39:18;17.33;;;7.50;;
249;SDS011;109;19.806;-70.704;2024-03-23T01:41:45;19.57;;;7.83;;
249;SDS011;109;19.806;-70.704;2024-03-23T01:44:11;18.60;;;7.40;;
249;SDS011;109;19.806;-70.704;2024-03-23T01:46:38;23.37;;;6.87;;
249;SDS011;109;19.806;-70.704;2024-03-23T01:49:05;16.63;;;7.10;;
249;SDS011;109;19.806;-70.704;2024-03-23T01:51:31;15.93;;;7.53;;
249;SDS011;109;19.806;-70.704;2024-03-23T01:53:59;20.93;;;8.10;;
249;SDS011;109;19.806;-70.704;2024-03-23T01:56:32;19.00;;;6.77;;
249;SDS011;109;19.806;-70.704;2024-03-23T01:59:04;21.07;;;8.20;;
249;SDS011;109;19.806;-70.704;2024-03-23T02:01:31;19.93;;;7.43;;
249;SDS011;109;19.806;-70.704;2024-03-23T02:03:58;21.27;;;7.50;;
249;SDS011;109;19.806;-70.704;2024-03-23T02:06:25;21.40;;;8.07;;
249;SDS011;109;19.806;-70.704;2024-03-23T02:08:51;18.43;;;6.90;;
249;SDS011;109;19.806;-70.704;2024-03-23T02:11:44;23.37;;;7.00;;
249;SDS011;109;19.806;-70.704;2024-03-23T02:14:35;15.30;;;6.60;;
249;SDS011;109;19.806;-70.704;2024-03-23T02:17:27;23.70;;;7.57;;
249;SDS011;109;19.806;-70.704;2024-03-23T02:20:21;17.53;;;6.90;;
249;SDS011;109;19.806;-70.704;2024-03-23T02:23:16;17.40;;;7.90;;
249;SDS011;109;19.806;-70.704;2024-03-23T02:26:08;17.67;;;7.30;;
249;SDS011;109;19.806;-70.704;2024-03-23T02:29:00;20.33;;;7.00;;
249;SDS011;109;19.806;-70.704;2024-03-23T02:32:16;19.47;;;6.67;;
249;SDS011;109;19.806;-70.704;2024-03-23T02:35:32;12.40;;;6.50;;
249;SDS011;109;19.806;-70.704;2024-03-23T02:38:48;13.10;;;6.00;;
249;SDS011;109;19.806;-70.704;2024-03-23T10:14:00;12.33;;;5.53;;
249;SDS011;109;19.806;-70.704;2024-03-23T10:16:27;11.53;;;5.00;;
249;SDS011;109;19.806;-70.704;2024-03-23T10:18:53;32.07;;;6.57;;
249;SDS011;109;19.806;-70.704;2024-03-23T10:21:20;12.30;;;5.57;;
249;SDS011;109;19.806;-70.704;2024-03-23T10:23:46;22.67;;;6.50;;
249;SDS011;109;19.806;-70.704;2024-03-23T10:28:50;9.67;;;5.00;;
249;SDS011;109;19.806;-70.704;2024-03-23T10:31:27;12.50;;;5.43;;
249;SDS011;109;19.806;-70.704;2024-03-23T10:33:54;13.60;;;5.70;;
249;SDS011;109;19.806;-70.704;2024-03-23T10:36:24;15.73;;;6.43;;
249;SDS011;109;19.806;-70.704;2024-03-23T10:38:52;15.10;;;6.27;;
249;SDS011;109;19.806;-70.704;2024-03-23T10:41:19;10.30;;;6.07;;
249;SDS011;109;19.806;-70.704;2024-03-23T10:43:47;14.43;;;4.93;;
249;SDS011;109;19.806;-70.704;2024-03-23T10:46:14;11.60;;;5.50;;
249;SDS011;109;19.806;-70.704;2024-03-23T10:48:41;15.67;;;5.40;;
249;SDS011;109;19.806;-70.704;2024-03-23T10:51:09;13.27;;;5.27;;
249;SDS011;109;19.806;-70.704;2024-03-23T10:53:36;10.13;;;5.33;;
249;SDS011;109;19.806;-70.704;2024-03-23T10:56:03;11.13;;;5.37;;
249;SDS011;109;19.806;-70.704;2024-03-23T10:58:38;9.80;;;6.10;;
249;SDS011;109;19.806;-70.704;2024-03-23T11:01:07;12.93;;;6.00;;
249;SDS011;109;19.806;-70.704;2024-03-23T11:03:37;15.37;;;6.37;;
249;SDS011;109;19.806;-70.704;2024-03-23T11:06:05;9.57;;;5.30;;
249;SDS011;109;19.806;-70.704;2024-03-23T11:08:36;12.53;;;6.53;;
249;SDS011;109;19.806;-70.704;2024-03-23T11:11:23;16.10;;;5.83;;
249;SDS011;109;19.806;-70.704;2024-03-23T11:13:51;26.50;;;5.90;;
249;SDS011;109;19.806;-70.704;2024-03-23T11:16:22;13.77;;;6.20;;
249;SDS011;109;19.806;-70.704;2024-03-23T11:18:51;8.10;;;5.40;;
249;SDS011;109;19.806;-70.704;2024-03-23T11:24:21;12.33;;;5.70;;
249;SDS011;109;19.806;-70.704;2024-03-23T11:26:50;7.73;;;5.03;;
249;SDS011;109;19.806;-70.704;2024-03-23T11:29:17;14.60;;;6.30;;
249;SDS011;109;19.806;-70.704;2024-03-23T11:31:47;12.73;;;6.87;;
249;SDS011;109;19.806;-70.704;2024-03-23T11:34:17;15.23;;;5.50;;
249;SDS011;109;19.806;-70.704;2024-03-23T11:36:45;9.00;;;5.13;;
249;SDS011;109;19.806;-70.704;2024-03-23T11:39:18;16.47;;;6.07;;
249;SDS011;109;19.806;-70.704;2024-03-23T11:41:49;14.20;;;5.53;;
249;SDS011;109;19.806;-70.704;2024-03-23T11:44:23;13.40;;;5.60;;
249;SDS011;109;19.806;-70.704;2024-03-23T11:46:52;15.57;;;5.50;;
249;SDS011;109;19.806;-70.704;2024-03-23T11:49:28;13.33;;;4.90;;
249;SDS011;109;19.806;-70.704;2024-03-23T11:51:55;12.70;;;4.90;;
249;SDS011;109;19.806;-70.704;2024-03-23T11:54:23;12.97;;;5.10;;
249;SDS011;109;19.806;-70.704;2024-03-23T11:56:57;12.37;;;5.60;;
249;SDS011;109;19.806;-70.704;2024-03-23T12:02:08;12.20;;;5.20;;
249;SDS011;109;19.806;-70.704;2024-03-23T12:04:40;9.70;;;4.77;;
249;SDS011;109;19.806;-70.704;2024-03-23T12:09:41;12.40;;;4.87;;
249;SDS011;109;19.806;-70.704;2024-03-23T12:12:13;10.23;;;5.43;;
249;SDS011;109;19.806;-70.704;2024-03-23T12:14:44;8.70;;;5.20;;
249;SDS011;109;19.806;-70.704;2024-03-23T12:17:26;12.30;;;5.10;;
249;SDS011;109;19.806;-70.704;2024-03-23T12:19:52;10.87;;;5.57;;
249;SDS011;109;19.806;-70.704;2024-03-23T12:22:22;12.60;;;5.03;;
249;SDS011;109;19.806;-70.704;2024-03-23T12:24:50;19.53;;;6.50;;
249;SDS011;109;19.806;-70.704;2024-03-23T12:27:16;19.47;;;5.93;;
249;SDS011;109;19.806;-70.704;2024-03-23T12:29:43;22.70;;;6.80;;
249;SDS011;109;19.806;-70.704;2024-03-23T12:32:11;23.30;;;6.03;;
249;SDS011;109;19.806;-70.704;2024-03-23T12:34:38;16.07;;;5.30;;
249;SDS011;109;19.806;-70.704;2024-03-23T12:37:05;16.90;;;5.70;;
249;SDS011;109;19.806;-70.704;2024-03-23T12:39:32;18.53;;;5.23;;
249;SDS011;109;19.806;-70.704;2024-03-23T12:41:58;15.13;;;6.07;;
249;SDS011;109;19.806;-70.704;2024-03-23T12:44:24;24.70;;;5.97;;
249;SDS011;109;19.806;-70.704;2024-03-23T12:46:51;19.70;;;5.40;;
249;SDS011;109;19.806;-70.704;2024-03-23T12:49:17;10.80;;;4.57;;
249;SDS011;109;19.806;-70.704;2024-03-23T12:51:47;21.87;;;6.20;;
249;SDS011;109;19.806;-70.704;2024-03-23T12:54:23;21.90;;;5.53;;
249;SDS011;109;19.806;-70.704;2024-03-23T12:56:50;17.10;;;4.67;;
249;SDS011;109;19.806;-70.704;2024-03-23T12:59:17;21.47;;;5.93;;
249;SDS011;109;19.806;-70.704;2024-03-23T13:01:44;25.90;;;6.43;;
249;SDS011;109;19.806;-70.704;2024-03-23T13:04:11;16.53;;;4.60;;
249;SDS011;109;19.806;-70.704;2024-03-23T13:06:37;22.07;;;6.40;;
249;SDS011;109;19.806;-70.704;2024-03-23T13:09:04;27.00;;;5.80;;
249;SDS011;109;19.806;-70.704;2024-03-23T13:11:31;23.50;;;5.50;;
249;SDS011;109;19.806;-70.704;2024-03-23T13:13:57;14.77;;;5.50;;
249;SDS011;109;19.806;-70.704;2024-03-23T13:16:24;22.17;;;6.67;;
249;SDS011;109;19.806;-70.704;2024-03-23T13:18:50;33.13;;;6.10;;
249;SDS011;109;19.806;-70.704;2024-03-23T13:21:17;23.87;;;5.20;;
249;SDS011;109;19.806;-70.704;2024-03-23T13:23:47;24.70;;;6.63;;
249;SDS011;109;19.806;-70.704;2024-03-23T13:26:15;36.23;;;6.00;;
249;SDS011;109;19.806;-70.704;2024-03-23T13:28:42;25.17;;;5.70;;
249;SDS011;109;19.806;-70.704;2024-03-23T13:31:10;31.80;;;6.23;;
249;SDS011;109;19.806;-70.704;2024-03-23T13:33:36;24.13;;;5.77;;
249;SDS011;109;19.806;-70.704;2024-03-23T13:36:03;43.77;;;7.60;;
249;SDS011;109;19.806;-70.704;2024-03-23T13:38:30;26.33;;;6.10;;
249;SDS011;109;19.806;-70.704;2024-03-23T13:40:57;24.60;;;6.40;;
249;SDS011;109;19.806;-70.704;2024-03-23T13:43:25;22.53;;;6.53;;
249;SDS011;109;19.806;-70.704;2024-03-23T13:45:53;27.80;;;6.20;;
249;SDS011;109;19.806;-70.704;2024-03-23T13:48:24;20.53;;;5.20;;
249;SDS011;109;19.806;-70.704;2024-03-23T13:51:01;24.97;;;7.30;;
249;SDS011;109;19.806;-70.704;2024-03-23T13:53:29;26.07;;;5.97;;
249;SDS011;109;19.806;-70.704;2024-03-23T13:55:56;29.00;;;5.67;;
249;SDS011;109;19.806;-70.704;2024-03-23T13:58:23;27.53;;;6.93;;
249;SDS011;109;19.806;-70.704;2024-03-23T14:00:51;26.77;;;6.17;;
249;SDS011;109;19.806;-70.704;2024-03-23T14:03:18;23.10;;;5.47;;
249;SDS011;109;19.806;-70.704;2024-03-23T14:05:45;21.97;;;5.90;;
249;SDS011;109;19.806;-70.704;2024-03-23T14:08:12;35.33;;;6.77;;
249;SDS011;109;19.806;-70.704;2024-03-23T14:10:42;19.53;;;5.87;;
249;SDS011;109;19.806;-70.704;2024-03-23T14:13:09;27.00;;;6.00;;
249;SDS011;109;19.806;-70.704;2024-03-23T14:15:35;21.70;;;5.27;;
249;SDS011;109;19.806;-70.704;2024-03-23T14:18:04;21.73;;;4.97;;
249;SDS011;109;19.806;-70.704;2024-03-23T14:20:31;13.50;;;5.10;;
249;SDS011;109;19.806;-70.704;2024-03-23T14:22:58;19.10;;;5.23;;
249;SDS011;109;19.806;-70.704;2024-03-23T14:25:24;22.77;;;5.60;;
249;SDS011;109;19.806;-70.704;2024-03-23T14:27:54;24.80;;;6.37;;
249;SDS011;109;19.806;-70.704;2024-03-23T14:30:21;28.20;;;6.80;;
249;SDS011;109;19.806;-70.704;2024-03-23T14:32:48;32.77;;;5.77;;
249;SDS011;109;19.806;-70.704;2024-03-23T14:35:14;18.30;;;5.63;;
249;SDS011;109;19.806;-70.704;2024-03-23T14:37:40;25.03;;;5.53;;
249;SDS011;109;19.806;-70.704;2024-03-23T14:40:08;24.13;;;6.80;;
249;SDS011;109;19.806;-70.704;2024-03-23T14:42:37;26.33;;;6.33;;
249;SDS011;109;19.806;-70.704;2024-03-23T14:45:03;28.50;;;5.90;;
249;SDS011;109;19.806;-70.704;2024-03-23T14:47:30;23.47;;;6.33;;
249;SDS011;109;19.806;-70.704;2024-03-23T14:49:57;16.10;;;4.33;;
249;SDS011;109;19.806;-70.704;2024-03-23T14:52:24;27.20;;;5.00;;
249;SDS011;109;19.806;-70.704;2024-03-23T14:54:50;24.83;;;5.80;;
249;SDS011;109;19.806;-70.704;2024-03-23T14:57:17;16.83;;;5.80;;
249;SDS011;109;19.806;-70.704;2024-03-23T14:59:45;16.40;;;4.33;;
249;SDS011;109;19.806;-70.704;2024-03-23T15:02:12;22.30;;;6.00;;
249;SDS011;109;19.806;-70.704;2024-03-23T15:04:39;21.53;;;4.80;;
249;SDS011;109;19.806;-70.704;2024-03-23T15:07:07;27.93;;;5.80;;
249;SDS011;109;19.806;-70.704;2024-03-23T15:09:34;16.43;;;5.53;;
249;SDS011;109;19.806;-70.704;2024-03-23T15:12:00;22.00;;;5.60;;
249;SDS011;109;19.806;-70.704;2024-03-23T15:14:26;17.17;;;4.57;;
249;SDS011;109;19.806;-70.704;2024-03-23T15:16:53;23.03;;;5.60;;
249;SDS011;109;19.806;-70.704;2024-03-23T15:19:19;29.63;;;6.80;;
249;SDS011;109;19.806;-70.704;2024-03-23T15:21:46;16.30;;;5.20;;
249;SDS011;109;19.806;-70.704;2024-03-23T15:24:12;23.83;;;4.83;;
249;SDS011;109;19.806;-70.704;2024-03-23T15:26:39;43.63;;;7.40;;
249;SDS011;109;19.806;-70.704;2024-03-23T15:29:06;12.03;;;4.30;;
249;SDS011;109;19.806;-70.704;2024-03-23T15:31:38;10.00;;;4.47;;
249;SDS011;109;19.806;-70.704;2024-03-23T15:34:04;11.53;;;3.83;;
249;SDS011;109;19.806;-70.704;2024-03-23T15:36:36;19.33;;;5.63;;
249;SDS011;109;19.806;-70.704;2024-03-23T15:39:05;26.23;;;5.50;;
249;SDS011;109;19.806;-70.704;2024-03-23T15:41:32;25.13;;;6.10;;
249;SDS011;109;19.806;-70.704;2024-03-23T15:44:01;15.43;;;4.93;;
249;SDS011;109;19.806;-70.704;2024-03-23T15:46:28;24.53;;;5.63;;
249;SDS011;109;19.806;-70.704;2024-03-23T15:48:54;17.03;;;5.23;;
249;SDS011;109;19.806;-70.704;2024-03-23T15:51:21;14.83;;;4.83;;
249;SDS011;109;19.806;-70.704;2024-03-23T15:53:47;23.47;;;5.73;;
249;SDS011;109;19.806;-70.704;2024-03-23T15:56:17;26.00;;;5.57;;
249;SDS011;109;19.806;-70.704;2024-03-23T15:58:44;33.43;;;8.40;;
249;SDS011;109;19.806;-70.704;2024-03-23T16:01:11;32.80;;;6.50;;
249;SDS011;109;19.806;-70.704;2024-03-23T16:03:38;17.27;;;6.10;;
249;SDS011;109;19.806;-70.704;2024-03-23T16:06:05;19.40;;;5.53;;
249;SDS011;109;19.806;-70.704;2024-03-23T16:08:35;31.47;;;6.67;;
249;SDS011;109;19.806;-70.704;2024-03-23T16:11:05;33.00;;;7.33;;
249;SDS011;109;19.806;-70.704;2024-03-23T16:13:35;21.20;;;5.70;;
249;SDS011;109;19.806;-70.704;2024-03-23T16:16:02;27.87;;;6.33;;
249;SDS011;109;19.806;-70.704;2024-03-23T16:18:33;18.60;;;5.20;;
249;SDS011;109;19.806;-70.704;2024-03-23T16:21:04;23.10;;;5.73;;
249;SDS011;109;19.806;-70.704;2024-03-23T16:23:34;30.93;;;5.77;;
249;SDS011;109;19.806;-70.704;2024-03-23T16:26:07;34.70;;;6.30;;
249;SDS011;109;19.806;-70.704;2024-03-23T16:28:34;30.67;;;6.20;;
249;SDS011;109;19.806;-70.704;2024-03-23T16:33:29;27.17;;;6.10;;
249;SDS011;109;19.806;-70.704;2024-03-23T16:38:31;30.60;;;5.90;;
249;SDS011;109;19.806;-70.704;2024-03-23T16:41:00;25.23;;;6.63;;
249;SDS011;109;19.806;-70.704;2024-03-23T16:43:28;21.70;;;5.60;;
249;SDS011;109;19.806;-70.704;2024-03-23T16:45:58;36.80;;;6.70;;
249;SDS011;109;19.806;-70.704;2024-03-23T16:48:26;21.13;;;5.50;;
249;SDS011;109;19.806;-70.704;2024-03-23T16:50:56;28.23;;;5.70;;
249;SDS011;109;19.806;-70.704;2024-03-23T16:53:23;26.47;;;6.40;;
249;SDS011;109;19.806;-70.704;2024-03-23T16:58:25;25.83;;;6.90;;
249;SDS011;109;19.806;-70.704;2024-03-23T17:00:52;15.43;;;4.90;;
249;SDS011;109;19.806;-70.704;2024-03-23T17:03:22;33.33;;;5.93;;
249;SDS011;109;19.806;-70.704;2024-03-23T17:05:49;26.73;;;6.83;;
249;SDS011;109;19.806;-70.704;2024-03-23T17:08:19;24.60;;;5.50;;
249;SDS011;109;19.806;-70.704;2024-03-23T17:10:46;27.27;;;6.50;;
249;SDS011;109;19.806;-70.704;2024-03-23T17:13:12;21.17;;;6.00;;
249;SDS011;109;19.806;-70.704;2024-03-23T17:15:45;30.07;;;6.90;;
249;SDS011;109;19.806;-70.704;2024-03-23T17:18:12;27.20;;;5.97;;
249;SDS011;109;19.806;-70.704;2024-03-23T17:20:39;33.23;;;6.67;;
249;SDS011;109;19.806;-70.704;2024-03-23T17:23:05;33.70;;;7.63;;
249;SDS011;109;19.806;-70.704;2024-03-23T17:25:32;32.13;;;6.70;;
249;SDS011;109;19.806;-70.704;2024-03-23T17:27:58;28.70;;;5.93;;
249;SDS011;109;19.806;-70.704;2024-03-23T17:30:24;20.50;;;5.53;;
249;SDS011;109;19.806;-70.704;2024-03-23T17:32:52;24.27;;;5.00;;
249;SDS011;109;19.806;-70.704;2024-03-23T17:35:18;33.47;;;7.30;;
249;SDS011;109;19.806;-70.704;2024-03-23T17:37:47;37.53;;;5.70;;
249;SDS011;109;19.806;-70.704;2024-03-23T17:40:15;33.80;;;6.17;;
249;SDS011;109;19.806;-70.704;2024-03-23T17:42:41;38.60;;;8.80;;
249;SDS011;109;19.806;-70.704;2024-03-23T17:45:08;25.33;;;6.13;;
249;SDS011;109;19.806;-70.704;2024-03-23T17:47:35;22.80;;;5.13;;
249;SDS011;109;19.806;-70.704;2024-03-23T17:50:02;30.43;;;5.50;;
249;SDS011;109;19.806;-70.704;2024-03-23T17:52:30;28.63;;;6.97;;
249;SDS011;109;19.806;-70.704;2024-03-23T17:54:57;22.30;;;5.57;;
249;SDS011;109;19.806;-70.704;2024-03-23T17:57:24;22.53;;;5.50;;
249;SDS011;109;19.806;-70.704;2024-03-23T17:59:51;27.63;;;4.70;;
249;SDS011;109;19.806;-70.704;2024-03-23T18:02:21;28.20;;;6.93;;
249;SDS011;109;19.806;-70.704;2024-03-23T18:04:47;20.63;;;5.40;;
249;SDS011;109;19.806;-70.704;2024-03-23T18:07:17;27.63;;;5.57;;
249;SDS011;109;19.806;-70.704;2024-03-23T18:09:43;28.13;;;5.87;;
249;SDS011;109;19.806;-70.704;2024-03-23T18:12:10;34.33;;;5.73;;
249;SDS011;109;19.806;-70.704;2024-03-23T18:14:37;26.97;;;5.13;;
249;SDS011;109;19.806;-70.704;2024-03-23T18:17:04;35.43;;;5.60;;
249;SDS011;109;19.806;-70.704;2024-03-23T18:19:30;25.80;;;5.60;;
249;SDS011;109;19.806;-70.704;2024-03-23T18:21:57;19.80;;;5.50;;
249;SDS011;109;19.806;-70.704;2024-03-23T18:24:23;30.20;;;5.50;;
249;SDS011;109;19.806;-70.704;2024-03-23T18:26:50;21.40;;;4.80;;
249;SDS011;109;19.806;-70.704;2024-03-23T18:29:17;29.80;;;5.17;;
249;SDS011;109;19.806;-70.704;2024-03-23T18:31:43;30.10;;;6.13;;
249;SDS011;109;19.806;-70.704;2024-03-23T18:34:10;25.70;;;5.33;;
249;SDS011;109;19.806;-70.704;2024-03-23T18:36:36;23.43;;;4.90;;
249;SDS011;109;19.806;-70.704;2024-03-23T18:39:03;32.37;;;5.43;;
249;SDS011;109;19.806;-70.704;2024-03-23T18:41:29;35.40;;;5.97;;
249;SDS011;109;19.806;-70.704;2024-03-23T18:43:56;26.40;;;6.23;;
249;SDS011;109;19.806;-70.704;2024-03-23T18:46:26;26.97;;;6.00;;
249;SDS011;109;19.806;-70.704;2024-03-23T18:48:56;22.50;;;5.80;;
249;SDS011;109;19.806;-70.704;2024-03-23T18:51:25;27.40;;;5.47;;
249;SDS011;109;19.806;-70.704;2024-03-23T18:53:52;24.30;;;7.07;;
249;SDS011;109;19.806;-70.704;2024-03-23T18:56:20;19.63;;;5.87;;
249;SDS011;109;19.806;-70.704;2024-03-23T18:58:46;32.73;;;5.90;;
249;SDS011;109;19.806;-70.704;2024-03-23T19:01:13;32.60;;;5.47;;
249;SDS011;109;19.806;-70.704;2024-03-23T19:03:39;19.30;;;4.87;;
249;SDS011;109;19.806;-70.704;2024-03-23T19:06:06;19.13;;;5.07;;
249;SDS011;109;19.806;-70.704;2024-03-23T19:08:32;24.57;;;5.53;;
249;SDS011;109;19.806;-70.704;2024-03-23T19:11:00;21.57;;;6.90;;
249;SDS011;109;19.806;-70.704;2024-03-23T19:13:27;36.10;;;6.30;;
249;SDS011;109;19.806;-70.704;2024-03-23T19:15:55;28.13;;;6.17;;
249;SDS011;109;19.806;-70.704;2024-03-23T19:18:25;35.10;;;6.70;;
249;SDS011;109;19.806;-70.704;2024-03-23T19:20:52;28.00;;;5.67;;
249;SDS011;109;19.806;-70.704;2024-03-23T19:23:20;26.03;;;5.37;;
249;SDS011;109;19.806;-70.704;2024-03-23T19:28:20;34.40;;;6.20;;
249;SDS011;109;19.806;-70.704;2024-03-23T19:30:47;27.30;;;6.00;;
249;SDS011;109;19.806;-70.704;2024-03-23T19:33:14;27.13;;;6.07;;
249;SDS011;109;19.806;-70.704;2024-03-23T19:35:40;29.17;;;5.83;;
249;SDS011;109;19.806;-70.704;2024-03-23T19:38:08;26.77;;;5.07;;
249;SDS011;109;19.806;-70.704;2024-03-23T19:40:34;40.37;;;6.97;;
249;SDS011;109;19.806;-70.704;2024-03-23T19:43:02;35.50;;;6.40;;
249;SDS011;109;19.806;-70.704;2024-03-23T19:45:29;33.50;;;6.50;;
249;SDS011;109;19.806;-70.704;2024-03-23T19:47:57;34.83;;;6.60;;
249;SDS011;109;19.806;-70.704;2024-03-23T19:50:23;35.33;;;6.50;;
249;SDS011;109;19.806;-70.704;2024-03-23T19:52:50;25.73;;;6.73;;
249;SDS011;109;19.806;-70.704;2024-03-23T19:55:16;25.37;;;6.40;;
249;SDS011;109;19.806;-70.704;2024-03-23T19:57:45;38.47;;;6.63;;
249;SDS011;109;19.806;-70.704;2024-03-23T20:00:15;30.03;;;6.40;;
249;SDS011;109;19.806;-70.704;2024-03-23T20:02:45;26.27;;;6.47;;
249;SDS011;109;19.806;-70.704;2024-03-23T20:05:12;45.23;;;7.17;;
249;SDS011;109;19.806;-70.704;2024-03-23T20:07:38;25.97;;;7.43;;
249;SDS011;109;19.806;-70.704;2024-03-23T20:10:05;29.63;;;6.50;;
249;SDS011;109;19.806;-70.704;2024-03-23T20:12:32;30.23;;;7.57;;
249;SDS011;109;19.806;-70.704;2024-03-23T20:14:58;34.67;;;6.27;;
249;SDS011;109;19.806;-70.704;2024-03-23T20:17:25;34.87;;;7.80;;
249;SDS011;109;19.806;-70.704;2024-03-23T20:19:53;36.40;;;8.40;;
249;SDS011;109;19.806;-70.704;2024-03-23T20:22:20;41.27;;;7.00;;
249;SDS011;109;19.806;-70.704;2024-03-23T20:24:46;35.03;;;7.47;;
249;SDS011;109;19.806;-70.704;2024-03-23T20:27:13;33.77;;;5.60;;
249;SDS011;109;19.806;-70.704;2024-03-23T20:29:40;29.47;;;6.70;;
249;SDS011;109;19.806;-70.704;2024-03-23T20:32:06;26.73;;;6.50;;
249;SDS011;109;19.806;-70.704;2024-03-23T20:34:32;25.43;;;5.37;;
249;SDS011;109;19.806;-70.704;2024-03-23T20:36:59;24.77;;;6.13;;
249;SDS011;109;19.806;-70.704;2024-03-23T20:39:25;32.07;;;6.07;;
249;SDS011;109;19.806;-70.704;2024-03-23T20:41:52;31.57;;;6.40;;
249;SDS011;109;19.806;-70.704;2024-03-23T20:44:18;34.77;;;6.83;;
249;SDS011;109;19.806;-70.704;2024-03-23T20:46:45;35.23;;;6.13;;
249;SDS011;109;19.806;-70.704;2024-03-23T20:49:11;23.10;;;5.60;;
249;SDS011;109;19.806;-70.704;2024-03-23T20:51:37;21.57;;;5.87;;
249;SDS011;109;19.806;-70.704;2024-03-23T20:54:04;26.17;;;6.10;;
249;SDS011;109;19.806;-70.704;2024-03-23T20:56:30;28.90;;;5.87;;
249;SDS011;109;19.806;-70.704;2024-03-23T20:58:57;25.40;;;7.37;;
249;SDS011;109;19.806;-70.704;2024-03-23T21:01:23;23.57;;;5.93;;
249;SDS011;109;19.806;-70.704;2024-03-23T21:03:50;26.00;;;6.40;;
249;SDS011;109;19.806;-70.704;2024-03-23T21:06:17;35.20;;;6.53;;
249;SDS011;109;19.806;-70.704;2024-03-23T21:08:43;42.97;;;7.53;;
249;SDS011;109;19.806;-70.704;2024-03-23T21:11:11;43.23;;;7.30;;
249;SDS011;109;19.806;-70.704;2024-03-23T21:13:38;37.13;;;6.87;;
249;SDS011;109;19.806;-70.704;2024-03-23T21:16:04;43.37;;;7.70;;
249;SDS011;109;19.806;-70.704;2024-03-23T21:18:31;37.27;;;7.67;;
249;SDS011;109;19.806;-70.704;2024-03-23T21:20:59;32.07;;;6.40;;
249;SDS011;109;19.806;-70.704;2024-03-23T21:23:27;30.70;;;7.67;;
249;SDS011;109;19.806;-70.704;2024-03-23T21:26:01;32.07;;;7.40;;
249;SDS011;109;19.806;-70.704;2024-03-23T21:28:29;49.07;;;7.80;;
249;SDS011;109;19.806;-70.704;2024-03-23T21:30:55;31.40;;;6.70;;
249;SDS011;109;19.806;-70.704;2024-03-23T21:33:23;29.50;;;7.17;;
249;SDS011;109;19.806;-70.704;2024-03-23T21:35:58;30.90;;;8.03;;
249;SDS011;109;19.806;-70.704;2024-03-23T21:38:26;43.13;;;8.50;;
249;SDS011;109;19.806;-70.704;2024-03-23T21:40:56;26.27;;;6.63;;
249;SDS011;109;19.806;-70.704;2024-03-23T21:43:27;31.87;;;6.40;;
249;SDS011;109;19.806;-70.704;2024-03-23T21:45:55;35.40;;;6.87;;
249;SDS011;109;19.806;-70.704;2024-03-23T21:48:29;37.87;;;7.60;;
249;SDS011;109;19.806;-70.704;2024-03-23T21:51:04;26.77;;;6.20;;
249;SDS011;109;19.806;-70.704;2024-03-23T21:53:31;32.70;;;6.93;;
249;SDS011;109;19.806;-70.704;2024-03-23T21:55:58;38.10;;;7.63;;
249;SDS011;109;19.806;-70.704;2024-03-23T21:58:25;20.93;;;6.60;;
249;SDS011;109;19.806;-70.704;2024-03-23T22:00:52;39.37;;;6.90;;
249;SDS011;109;19.806;-70.704;2024-03-23T22:03:20;42.43;;;6.40;;
249;SDS011;109;19.806;-70.704;2024-03-23T22:05:46;41.17;;;7.50;;
249;SDS011;109;19.806;-70.704;2024-03-23T22:08:19;41.93;;;7.47;;
249;SDS011;109;19.806;-70.704;2024-03-23T22:10:46;50.73;;;8.80;;
249;SDS011;109;19.806;-70.704;2024-03-23T22:13:16;33.87;;;7.87;;
249;SDS011;109;19.806;-70.704;2024-03-23T22:15:43;30.43;;;7.80;;
249;SDS011;109;19.806;-70.704;2024-03-23T22:18:12;47.70;;;9.03;;
249;SDS011;109;19.806;-70.704;2024-03-23T22:20:39;36.23;;;7.27;;
249;SDS011;109;19.806;-70.704;2024-03-23T22:23:10;39.47;;;7.93;;
249;SDS011;109;19.806;-70.704;2024-03-23T22:25:37;30.33;;;6.73;;
249;SDS011;109;19.806;-70.704;2024-03-23T22:28:03;45.57;;;8.63;;
249;SDS011;109;19.806;-70.704;2024-03-23T22:30:30;48.40;;;8.80;;
249;SDS011;109;19.806;-70.704;2024-03-23T22:32:56;55.40;;;10.07;;
249;SDS011;109;19.806;-70.704;2024-03-23T22:35:25;32.97;;;6.63;;
249;SDS011;109;19.806;-70.704;2024-03-23T22:37:51;43.23;;;8.20;;
249;SDS011;109;19.806;-70.704;2024-03-23T22:40:18;33.20;;;8.00;;
249;SDS011;109;19.806;-70.704;2024-03-23T22:42:45;44.23;;;9.00;;
249;SDS011;109;19.806;-70.704;2024-03-23T22:45:11;37.47;;;8.40;;
249;SDS011;109;19.806;-70.704;2024-03-23T22:47:38;40.20;;;7.73;;
249;SDS011;109;19.806;-70.704;2024-03-23T22:50:05;43.73;;;7.90;;
249;SDS011;109;19.806;-70.704;2024-03-23T22:52:34;30.03;;;7.27;;
249;SDS011;109;19.806;-70.704;2024-03-23T22:55:00;32.77;;;7.00;;
249;SDS011;109;19.806;-70.704;2024-03-23T22:57:26;36.70;;;7.80;;
249;SDS011;109;19.806;-70.704;2024-03-23T22:59:53;44.27;;;9.40;;
249;SDS011;109;19.806;-70.704;2024-03-23T23:02:19;47.10;;;8.50;;
249;SDS011;109;19.806;-70.704;2024-03-23T23:04:48;40.47;;;7.77;;
249;SDS011;109;19.806;-70.704;2024-03-23T23:07:15;51.07;;;7.57;;
249;SDS011;109;19.806;-70.704;2024-03-23T23:09:41;45.37;;;8.33;;
249;SDS011;109;19.806;-70.704;2024-03-23T23:12:08;52.60;;;9.53;;
249;SDS011;109;19.806;-70.704;2024-03-23T23:14:34;45.07;;;8.60;;
249;SDS011;109;19.806;-70.704;2024-03-23T23:17:01;44.43;;;10.40;;
249;SDS011;109;19.806;-70.704;2024-03-23T23:19:27;46.53;;;9.73;;
249;SDS011;109;19.806;-70.704;2024-03-23T23:21:54;53.83;;;9.60;;
249;SDS011;109;19.806;-70.704;2024-03-23T23:24:20;45.83;;;8.83;;
249;SDS011;109;19.806;-70.704;2024-03-23T23:26:46;42.03;;;9.23;;
249;SDS011;109;19.806;-70.704;2024-03-23T23:29:13;27.47;;;7.63;;
249;SDS011;109;19.806;-70.704;2024-03-23T23:31:39;42.10;;;7.93;;
249;SDS011;109;19.806;-70.704;2024-03-23T23:34:07;40.53;;;9.23;;
249;SDS011;109;19.806;-70.704;2024-03-23T23:36:34;28.83;;;8.13;;
249;SDS011;109;19.806;-70.704;2024-03-23T23:39:00;47.80;;;8.93;;
249;SDS011;109;19.806;-70.704;2024-03-23T23:41:27;37.50;;;8.77;;
249;SDS011;109;19.806;-70.704;2024-03-23T23:43:54;42.57;;;9.30;;
249;SDS011;109;19.806;-70.704;2024-03-23T23:46:22;36.33;;;8.97;;
249;SDS011;109;19.806;-70.704;2024-03-23T23:48:50;41.73;;;9.80;;
249;SDS011;109;19.806;-70.704;2024-03-23T23:51:17;53.50;;;9.33;;
249;SDS011;109;19.806;-70.704;2024-03-23T23:53:44;46.30;;;9.07;;
249;SDS011;109;19.806;-70.704;2024-03-23T23:56:10;41.53;;;9.30;;
249;SDS011;109;19.806;-70.704;2024-03-23T23:58:37;48.07;;;10.90;;
